Time;durP1;ratioP1;P1;durP2;ratioP2;P2;SDS_P1;SDS_P2;PMS_P1;PMS_P2;Temp;Humidity;BMP_temperature;BMP_pressure;BME280_temperature;BME280_humidity;BME280_pressure;Samples;Min_cycle;Max_cycle;Signal;HPM_P1;HPM_P2
2023/11/25 00:00:47;;;;;;;;;;;;;;;;;;5067714;28;19916;-45
2023/11/25 00:03:13;;;;;;;;;;;;;;;;;;5035719;28;19962;-47
2023/11/25 00:05:39;;;;;;;;;;;;;;;;;;5072179;28;19915;-46
2023/11/25 00:08:05;;;;;;;;;;;;;;;;;;5073167;28;19909;-46
2023/11/25 00:10:31;;;;;;;;;;;;;;;;;;5059421;28;19913;-48
2023/11/25 00:12:58;;;;;;;;;;;;;;;;;;5054360;28;19908;-50
2023/11/25 00:15:24;;;;;;;;;;;;;;;;;;5067020;28;19970;-50
2023/11/25 00:17:50;;;;;;;;;;;;;;;;;;5058629;28;20007;-48
2023/11/25 00:20:16;;;;;;;;;;;;;;;;;;5063553;28;20440;-46
2023/11/25 00:22:42;;;;;;;;;;;;;;;;;;5041907;23;19921;-45
2023/11/25 00:25:12;;;;;;;;;;;;;;;;;;5011473;28;19913;-46
2023/11/25 00:27:38;;;;;;;;;;;;;;;;;;5013110;28;19909;-47
2023/11/25 00:30:04;;;;;;;;;;;;;;;;;;5013103;28;19913;-49
2023/11/25 00:32:30;;;;;;;;;;;;;;;;;;5011625;28;19910;-46
2023/11/25 00:34:56;;;;;;;;;;;;;;;;;;5013070;28;20391;-46
2023/11/25 00:37:22;;;;;;;;;;;;;;;;;;5010001;28;20371;-46
2023/11/25 00:39:48;;;;;;;;;;;;;;;;;;5009362;28;19936;-46
2023/11/25 00:42:15;;;;;;;;;;;;;;;;;;5010589;28;19945;-46
2023/11/25 00:44:41;;;;;;;;;;;;;;;;;;4993127;28;20295;-46
2023/11/25 00:47:12;;;;;;;;;;;;;;;;;;5009594;28;19916;-46
2023/11/25 00:49:40;;;;;;;;;;;;;;;;;;5011007;28;19914;-46
2023/11/25 00:52:06;;;;;;;;;;;;;;;;;;5009944;28;20402;-49
2023/11/25 00:54:33;;;;;;;;;;;;;;;;;;5012480;28;19930;-49
2023/11/25 00:57:01;;;;;;;;;;;;;;;;;;5011922;28;20332;-46
2023/11/25 00:59:27;;;;;;;;;;;;;;;;;;5012412;28;20408;-46
2023/11/25 01:01:53;;;;;;;;;;;;;;;;;;5012310;28;19913;-46
2023/11/25 01:04:19;;;;;;;;;;;;;;;;;;5011051;28;19975;-46
2023/11/25 01:06:48;;;;;;;;;;;;;;;;;;5011310;28;20374;-46
2023/11/25 01:09:18;;;;;;;;;;;;;;;;;;5012761;28;19916;-46
2023/11/25 01:11:44;;;;;;;;;;;;;;;;;;5011071;28;19909;-46
2023/11/25 01:14:10;;;;;;;;;;;;;;;;;;5010916;28;19916;-46
2023/11/25 01:16:36;;;;;;;;;;;;;;;;;;5011412;28;19971;-46
2023/11/25 01:19:02;;;;;;;;;;;;;;;;;;5012615;28;19916;-46
2023/11/25 01:21:29;;;;;;;;;;;;;;;;;;5017703;28;20306;-46
2023/11/25 01:23:55;;;;;;;;;;;;;;;;;;5051538;28;19916;-45
2023/11/25 01:26:24;;;;;;;;;;;;;;;;;;5034030;28;19910;-46
2023/11/25 01:28:52;;;;;;;;;;;;;;;;;;5033850;28;19916;-49
2023/11/25 01:31:18;;;;;;;;;;;;;;;;;;5051905;28;19913;-46
2023/11/25 01:33:44;;;;;;;;;;;;;;;;;;5033622;28;20050;-45
2023/11/25 01:36:10;;;;;;;;;;;;;;;;;;5033770;28;19908;-45
2023/11/25 01:38:37;;;;;;;;;;;;;;;;;;5051883;28;19912;-47
2023/11/25 01:41:04;;;;;;;;;;;;;;;;;;5033499;28;19971;-46
2023/11/25 01:43:30;;;;;;;;;;;;;;;;;;5051862;28;20310;-46
2023/11/25 01:45:57;;;;;;;;;;;;;;;;;;5033337;28;19950;-46
2023/11/25 01:48:23;;;;;;;;;;;;;;;;;;5033390;28;19913;-46
2023/11/25 01:50:49;;;;;;;;;;;;;;;;;;5051277;28;19912;-47
2023/11/25 01:53:17;;;;;;;;;;;;;;;;;;5037349;28;19909;-46
2023/11/25 01:55:43;;;;;;;;;;;;;;;;;;5055528;28;19995;-46
2023/11/25 01:58:09;;;;;;;;;;;;;;;;;;5055620;28;20007;-46
2023/11/25 02:00:38;;;;;;;;;;;;;;;;;;5037229;28;19909;-46
2023/11/25 02:03:05;;;;;;;;;;;;;;;;;;5037711;28;20004;-46
2023/11/25 02:05:31;;;;;;;;;;;;;;;;;;5037392;28;19909;-47
2023/11/25 02:07:57;;;;;;;;;;;;;;;;;;5037690;28;19934;-47
2023/11/25 02:10:24;;;;;;;;;;;;;;;;;;5037352;28;20363;-46
2023/11/25 02:12:50;;;;;;;;;;;;;;;;;;5037293;28;19905;-46
2023/11/25 02:15:16;;;;;;;;;;;;;;;;;;5037577;28;20273;-46
2023/11/25 02:17:44;;;;;;;;;;;;;;;;;;5037584;28;19916;-46
2023/11/25 02:20:10;;;;;;;;;;;;;;;;;;5037443;28;19909;-46
2023/11/25 02:22:39;;;;;;;;;;;;;;;;;;5036887;28;20039;-46
2023/11/25 02:25:07;;;;;;;;;;;;;;;;;;5037400;28;20362;-46
2023/11/25 02:27:36;;;;;;;;;;;;;;;;;;5055171;28;20011;-47
2023/11/25 02:30:09;;;;;;;;;;;;;;;;;;5055270;28;20090;-46
2023/11/25 02:32:35;;;;;;;;;;;;;;;;;;5036984;28;19916;-46
2023/11/25 02:35:01;;;;;;;;;;;;;;;;;;5037228;28;19905;-46
2023/11/25 02:37:27;;;;;;;;;;;;;;;;;;5037095;28;20362;-46
2023/11/25 02:39:53;;;;;;;;;;;;;;;;;;5055163;28;19909;-46
2023/11/25 02:42:19;;;;;;;;;;;;;;;;;;5036765;28;19912;-46
2023/11/25 02:44:45;;;;;;;;;;;;;;;;;;5037128;28;20007;-46
2023/11/25 02:47:11;;;;;;;;;;;;;;;;;;5036923;28;19916;-46
2023/11/25 02:49:37;;;;;;;;;;;;;;;;;;5037019;28;19913;-46
2023/11/25 02:52:04;;;;;;;;;;;;;;;;;;5036626;28;20003;-46
2023/11/25 02:54:30;;;;;;;;;;;;;;;;;;5054755;28;19936;-46
2023/11/25 02:56:56;;;;;;;;;;;;;;;;;;5036909;28;19908;-47
2023/11/25 02:59:22;;;;;;;;;;;;;;;;;;5020289;28;19913;-47
2023/11/25 03:01:49;;;;;;;;;;;;;;;;;;5054123;28;20011;-46
2023/11/25 03:04:16;;;;;;;;;;;;;;;;;;5019793;28;19904;-46
2023/11/25 03:06:42;;;;;;;;;;;;;;;;;;5036769;28;19916;-45
2023/11/25 03:09:09;;;;;;;;;;;;;;;;;;5036701;28;19948;-46
2023/11/25 03:11:35;;;;;;;;;;;;;;;;;;5054204;28;19909;-47
2023/11/25 03:14:02;;;;;;;;;;;;;;;;;;5054160;28;20007;-46
2023/11/25 03:16:29;;;;;;;;;;;;;;;;;;5036313;28;19919;-46
2023/11/25 03:18:56;;;;;;;;;;;;;;;;;;5053404;28;20050;-46
2023/11/25 03:21:22;;;;;;;;;;;;;;;;;;5034579;28;19913;-46
2023/11/25 03:23:48;;;;;;;;;;;;;;;;;;5036262;28;19913;-47
2023/11/25 03:26:14;;;;;;;;;;;;;;;;;;5054169;28;19908;-46
2023/11/25 03:28:40;;;;;;;;;;;;;;;;;;5054111;28;19947;-46
2023/11/25 03:31:09;;;;;;;;;;;;;;;;;;5035897;28;19908;-46
2023/11/25 03:33:36;;;;;;;;;;;;;;;;;;5053868;28;19916;-46
2023/11/25 03:36:02;;;;;;;;;;;;;;;;;;5036110;28;19915;-46
2023/11/25 03:38:29;;;;;;;;;;;;;;;;;;5019583;28;19908;-46
2023/11/25 03:40:55;;;;;;;;;;;;;;;;;;5035881;28;19908;-46
2023/11/25 03:43:21;;;;;;;;;;;;;;;;;;5035817;28;20359;-46
2023/11/25 03:45:48;;;;;;;;;;;;;;;;;;5035902;28;19908;-46
2023/11/25 03:48:14;;;;;;;;;;;;;;;;;;5053695;28;19948;-46
2023/11/25 03:50:40;;;;;;;;;;;;;;;;;;5053519;28;19991;-48
2023/11/25 03:53:06;;;;;;;;;;;;;;;;;;5035513;28;19916;-46
2023/11/25 03:55:32;;;;;;;;;;;;;;;;;;5053394;28;19995;-46
2023/11/25 03:58:01;;;;;;;;;;;;;;;;;;5053515;28;19954;-46
2023/11/25 04:00:27;;;;;;;;;;;;;;;;;;5053324;28;20281;-46
2023/11/25 04:02:53;;;;;;;;;;;;;;;;;;5052883;28;19909;-46
2023/11/25 04:05:20;;;;;;;;;;;;;;;;;;5053172;28;19913;-46
2023/11/25 04:07:46;;;;;;;;;;;;;;;;;;5052177;28;19909;-46
2023/11/25 04:10:12;;;;;;;;;;;;;;;;;;5053249;28;19911;-46
2023/11/25 04:12:38;;;;;;;;;;;;;;;;;;5035115;28;19919;-47
2023/11/25 04:15:04;;;;;;;;;;;;;;;;;;5034324;28;19909;-46
2023/11/25 04:17:30;;;;;;;;;;;;;;;;;;5043935;28;20011;-46
2023/11/25 04:19:57;;;;;;;;;;;;;;;;;;5051829;28;19908;-46
2023/11/25 04:22:24;;;;;;;;;;;;;;;;;;5034765;28;19923;-49
2023/11/25 04:24:50;;;;;;;;;;;;;;;;;;5035074;28;19916;-48
2023/11/25 04:27:21;;;;;;;;;;;;;;;;;;5052919;28;19915;-48
2023/11/25 04:29:47;;;;;;;;;;;;;;;;;;5053076;28;19953;-46
2023/11/25 04:32:13;;;;;;;;;;;;;;;;;;5052672;28;20003;-46
2023/11/25 04:34:39;;;;;;;;;;;;;;;;;;5052809;28;19912;-46
2023/11/25 04:37:05;;;;;;;;;;;;;;;;;;5052629;28;19932;-47
2023/11/25 04:39:31;;;;;;;;;;;;;;;;;;5052533;28;19998;-46
2023/11/25 04:41:57;;;;;;;;;;;;;;;;;;5017695;28;19920;-46
2023/11/25 04:44:23;;;;;;;;;;;;;;;;;;5052812;28;19932;-46
2023/11/25 04:46:50;;;;;;;;;;;;;;;;;;5034725;28;20374;-46
2023/11/25 04:49:16;;;;;;;;;;;;;;;;;;5051160;28;19908;-46
2023/11/25 04:51:44;;;;;;;;;;;;;;;;;;5049215;28;19915;-47
2023/11/25 04:54:10;;;;;;;;;;;;;;;;;;5032589;28;19962;-47
2023/11/25 04:56:37;;;;;;;;;;;;;;;;;;5050293;28;19908;-46
2023/11/25 04:59:06;;;;;;;;;;;;;;;;;;5033142;28;19932;-46
2023/11/25 05:01:32;;;;;;;;;;;;;;;;;;5031914;28;19947;-46
2023/11/25 05:03:59;;;;;;;;;;;;;;;;;;5051717;28;19938;-46
2023/11/25 05:06:25;;;;;;;;;;;;;;;;;;5052393;28;19908;-47
2023/11/25 05:08:51;;;;;;;;;;;;;;;;;;5034298;28;19915;-49
2023/11/25 05:11:17;;;;;;;;;;;;;;;;;;5034132;28;19970;-49
2023/11/25 05:13:43;;;;;;;;;;;;;;;;;;5052265;28;19905;-48
2023/11/25 05:16:10;;;;;;;;;;;;;;;;;;5034357;28;19913;-48
2023/11/25 05:18:36;;;;;;;;;;;;;;;;;;5052287;28;19905;-46
2023/11/25 05:21:03;;;;;;;;;;;;;;;;;;5051956;28;20283;-46
2023/11/25 05:23:29;;;;;;;;;;;;;;;;;;5051952;28;19917;-49
2023/11/25 05:25:55;;;;;;;;;;;;;;;;;;5051988;28;19915;-49
2023/11/25 05:28:22;;;;;;;;;;;;;;;;;;5034304;28;19920;-49
2023/11/25 05:30:48;;;;;;;;;;;;;;;;;;5052097;28;19909;-47
2023/11/25 05:33:14;;;;;;;;;;;;;;;;;;5034169;28;19908;-47
2023/11/25 05:35:40;;;;;;;;;;;;;;;;;;5052037;28;19911;-47
2023/11/25 05:38:06;;;;;;;;;;;;;;;;;;5051950;28;19962;-47
2023/11/25 05:40:32;;;;;;;;;;;;;;;;;;5051802;28;19927;-46
2023/11/25 05:43:00;;;;;;;;;;;;;;;;;;5051887;28;19913;-46
2023/11/25 05:45:30;;;;;;;;;;;;;;;;;;5052079;28;19911;-46
2023/11/25 05:47:56;;;;;;;;;;;;;;;;;;5051993;28;19935;-48
2023/11/25 05:50:22;;;;;;;;;;;;;;;;;;5034070;28;20363;-47
2023/11/25 05:52:48;;;;;;;;;;;;;;;;;;5033813;28;20337;-46
2023/11/25 05:55:19;;;;;;;;;;;;;;;;;;5051813;28;20394;-46
2023/11/25 05:57:45;;;;;;;;;;;;;;;;;;5051827;28;20003;-46
2023/11/25 06:00:12;;;;;;;;;;;;;;;;;;5034153;28;20019;-49
2023/11/25 06:02:38;;;;;;;;;;;;;;;;;;5017130;28;19958;-47
2023/11/25 06:05:04;;;;;;;;;;;;;;;;;;5033919;28;19905;-46
2023/11/25 06:07:30;;;;;;;;;;;;;;;;;;5017479;28;19935;-47
2023/11/25 06:09:56;;;;;;;;;;;;;;;;;;5033858;28;19909;-46
2023/11/25 06:12:22;;;;;;;;;;;;;;;;;;5033780;28;20363;-46
2023/11/25 06:14:54;;;;;;;;;;;;;;;;;;5017356;28;20063;-45
2023/11/25 06:17:23;;;;;;;;;;;;;;;;;;5051578;28;19955;-45
2023/11/25 06:19:49;;;;;;;;;;;;;;;;;;5051678;28;19908;-46
2023/11/25 06:22:15;;;;;;;;;;;;;;;;;;5090060;22;20043;-49
2023/11/25 06:24:41;;;;;;;;;;;;;;;;;;5029864;28;20392;-47
2023/11/25 06:27:07;;;;;;;;;;;;;;;;;;5031445;28;19967;-50
2023/11/25 06:29:33;;;;;;;;;;;;;;;;;;5031655;28;19909;-53
2023/11/25 06:31:59;;;;;;;;;;;;;;;;;;5030275;28;20004;-55
2023/11/25 06:34:25;;;;;;;;;;;;;;;;;;5031147;28;19909;-51
2023/11/25 06:36:52;;;;;;;;;;;;;;;;;;5045360;28;19959;-53
2023/11/25 06:39:22;;;;;;;;;;;;;;;;;;5034436;28;19955;-52
2023/11/25 06:41:49;;;;;;;;;;;;;;;;;;5035101;28;20326;-56
2023/11/25 06:44:15;;;;;;;;;;;;;;;;;;5017240;28;19905;-56
2023/11/25 06:46:41;;;;;;;;;;;;;;;;;;5050364;28;20299;-54
2023/11/25 06:49:07;;;;;;;;;;;;;;;;;;5050054;28;19909;-56
2023/11/25 06:51:33;;;;;;;;;;;;;;;;;;5049732;28;19936;-58
2023/11/25 06:54:00;;;;;;;;;;;;;;;;;;5016884;28;19909;-56
2023/11/25 06:56:26;;;;;;;;;;;;;;;;;;5034823;28;19967;-58
2023/11/25 06:58:53;;;;;;;;;;;;;;;;;;5017261;28;20390;-57
2023/11/25 07:01:19;;;;;;;;;;;;;;;;;;5033898;28;19916;-58
2023/11/25 07:03:45;;;;;;;;;;;;;;;;;;5017058;28;19913;-54
2023/11/25 07:06:11;;;;;;;;;;;;;;;;;;5034038;28;19913;-55
2023/11/25 07:08:38;;;;;;;;;;;;;;;;;;5034782;28;19909;-55
2023/11/25 07:11:09;;;;;;;;;;;;;;;;;;5033827;28;20256;-57
2023/11/25 07:13:36;;;;;;;;;;;;;;;;;;5030027;28;20299;-57
2023/11/25 07:16:04;;;;;;;;;;;;;;;;;;5031240;28;19915;-56
2023/11/25 07:18:30;;;;;;;;;;;;;;;;;;5034511;28;19909;-57
2023/11/25 07:20:56;;;;;;;;;;;;;;;;;;5033558;28;19909;-55
2023/11/25 07:23:22;;;;;;;;;;;;;;;;;;5034146;28;20371;-55
2023/11/25 07:25:48;;;;;;;;;;;;;;;;;;5016250;28;20291;-55
2023/11/25 07:28:15;;;;;;;;;;;;;;;;;;5034279;28;19999;-58
2023/11/25 07:30:41;;;;;;;;;;;;;;;;;;5034126;28;19909;-55
2023/11/25 07:33:08;;;;;;;;;;;;;;;;;;5034334;28;19905;-59
2023/11/25 07:35:34;;;;;;;;;;;;;;;;;;5015757;28;19909;-57
2023/11/25 07:38:00;;;;;;;;;;;;;;;;;;5034286;28;19948;-58
2023/11/25 07:40:26;;;;;;;;;;;;;;;;;;5033565;28;19909;-56
2023/11/25 07:42:52;;;;;;;;;;;;;;;;;;5048984;28;19919;-56
2023/11/25 07:45:18;;;;;;;;;;;;;;;;;;4999386;28;19905;-54
2023/11/25 07:47:44;;;;;;;;;;;;;;;;;;5049306;28;20003;-52
2023/11/25 07:50:10;;;;;;;;;;;;;;;;;;5032012;28;19913;-58
2023/11/25 07:52:36;;;;;;;;;;;;;;;;;;5015934;28;19916;-55
2023/11/25 07:55:04;;;;;;;;;;;;;;;;;;5048671;28;20386;-52
2023/11/25 07:57:30;;;;;;;;;;;;;;;;;;5033634;28;20334;-53
2023/11/25 07:59:56;;;;;;;;;;;;;;;;;;5033220;28;19944;-53
2023/11/25 08:02:22;;;;;;;;;;;;;;;;;;5033402;28;20297;-52
2023/11/25 08:04:48;;;;;;;;;;;;;;;;;;5015398;28;19909;-53
2023/11/25 08:07:17;;;;;;;;;;;;;;;;;;5033395;28;19909;-56
2023/11/25 08:09:43;;;;;;;;;;;;;;;;;;5033068;28;19909;-55
2023/11/25 08:12:09;;;;;;;;;;;;;;;;;;5033096;28;19909;-55
2023/11/25 08:14:35;;;;;;;;;;;;;;;;;;5033523;28;20348;-52
2023/11/25 08:17:02;;;;;;;;;;;;;;;;;;5033716;28;19924;-51
2023/11/25 08:19:28;;;;;;;;;;;;;;;;;;5033361;28;19908;-57
2023/11/25 08:21:54;;;;;;;;;;;;;;;;;;5032841;28;19913;-51
2023/11/25 08:24:20;;;;;;;;;;;;;;;;;;5033368;28;19913;-56
2023/11/25 08:26:46;;;;;;;;;;;;;;;;;;5033255;28;20007;-52
2023/11/25 08:29:12;;;;;;;;;;;;;;;;;;5033301;28;19915;-52
2023/11/25 08:31:38;;;;;;;;;;;;;;;;;;5033367;28;19909;-56
2023/11/25 08:34:06;;;;;;;;;;;;;;;;;;4999132;28;20398;-53
2023/11/25 08:36:32;;;;;;;;;;;;;;;;;;5033176;28;19909;-52
2023/11/25 08:39:01;;;;;;;;;;;;;;;;;;4999199;28;19909;-55
2023/11/25 08:41:27;;;;;;;;;;;;;;;;;;5032740;28;19970;-53
2023/11/25 08:43:53;;;;;;;;;;;;;;;;;;5032864;28;20298;-51
2023/11/25 08:46:19;;;;;;;;;;;;;;;;;;5032895;28;20047;-57
2023/11/25 08:48:45;;;;;;;;;;;;;;;;;;5032845;28;19971;-55
2023/11/25 08:51:14;;;;;;;;;;;;;;;;;;5032615;28;20486;-56
2023/11/25 08:53:44;;;;;;;;;;;;;;;;;;5014898;28;20368;-52
2023/11/25 08:56:10;;;;;;;;;;;;;;;;;;5032642;28;19913;-53
2023/11/25 08:58:36;;;;;;;;;;;;;;;;;;5032575;28;19909;-57
2023/11/25 09:01:02;;;;;;;;;;;;;;;;;;5032162;28;20390;-53
2023/11/25 09:03:28;;;;;;;;;;;;;;;;;;5014660;28;19914;-51
2023/11/25 09:05:54;;;;;;;;;;;;;;;;;;5014892;28;19912;-56
2023/11/25 09:08:20;;;;;;;;;;;;;;;;;;5032472;28;19913;-54
2023/11/25 09:10:47;;;;;;;;;;;;;;;;;;5032235;28;19909;-55
2023/11/25 09:13:13;;;;;;;;;;;;;;;;;;5047769;28;19964;-52
2023/11/25 09:15:39;;;;;;;;;;;;;;;;;;5032229;28;19945;-51
2023/11/25 09:18:06;;;;;;;;;;;;;;;;;;5014639;28;19908;-52
2023/11/25 09:20:34;;;;;;;;;;;;;;;;;;5032097;28;20022;-51
2023/11/25 09:23:00;;;;;;;;;;;;;;;;;;5031783;28;19913;-57
2023/11/25 09:25:29;;;;;;;;;;;;;;;;;;5014549;28;19913;-52
2023/11/25 09:27:55;;;;;;;;;;;;;;;;;;5032106;28;20288;-57
2023/11/25 09:30:23;;;;;;;;;;;;;;;;;;5031994;28;20298;-53
2023/11/25 09:32:49;;;;;;;;;;;;;;;;;;5031800;28;19905;-57
2023/11/25 09:35:15;;;;;;;;;;;;;;;;;;5032004;28;19955;-56
2023/11/25 09:37:41;;;;;;;;;;;;;;;;;;5031882;28;19916;-51
2023/11/25 09:40:13;;;;;;;;;;;;;;;;;;5032323;28;19911;-53
2023/11/25 09:42:39;;;;;;;;;;;;;;;;;;5013860;28;19920;-57
2023/11/25 09:45:05;;;;;;;;;;;;;;;;;;4997831;28;20291;-52
2023/11/25 09:47:32;;;;;;;;;;;;;;;;;;5031957;28;20011;-56
2023/11/25 09:49:58;;;;;;;;;;;;;;;;;;5014173;28;19912;-55
2023/11/25 09:52:24;;;;;;;;;;;;;;;;;;5031660;28;20012;-56
2023/11/25 09:54:50;;;;;;;;;;;;;;;;;;5031206;28;19991;-55
2023/11/25 09:57:17;;;;;;;;;;;;;;;;;;5031731;28;19924;-54
2023/11/25 09:59:43;;;;;;;;;;;;;;;;;;5014095;28;19967;-52
2023/11/25 10:02:09;;;;;;;;;;;;;;;;;;5031423;28;19912;-51
2023/11/25 10:04:35;;;;;;;;;;;;;;;;;;5031748;28;19988;-55
2023/11/25 10:07:01;;;;;;;;;;;;;;;;;;5031954;28;19916;-52
2023/11/25 10:09:28;;;;;;;;;;;;;;;;;;5031774;28;20409;-57
2023/11/25 10:11:54;;;;;;;;;;;;;;;;;;5031395;28;19944;-54
2023/11/25 10:14:21;;;;;;;;;;;;;;;;;;5035430;28;20379;-54
2023/11/25 10:16:47;;;;;;;;;;;;;;;;;;5017830;28;20003;-54
2023/11/25 10:19:13;;;;;;;;;;;;;;;;;;5035441;28;19909;-53
2023/11/25 10:21:39;;;;;;;;;;;;;;;;;;5017380;28;19920;-54
2023/11/25 10:24:05;;;;;;;;;;;;;;;;;;5035301;28;19913;-57
2023/11/25 10:26:32;;;;;;;;;;;;;;;;;;5033998;28;20052;-56
2023/11/25 10:28:59;;;;;;;;;;;;;;;;;;5035246;28;20003;-55
2023/11/25 10:31:30;;;;;;;;;;;;;;;;;;5035011;28;19909;-58
2023/11/25 10:33:56;;;;;;;;;;;;;;;;;;5035039;28;19909;-52
2023/11/25 10:36:22;;;;;;;;;;;;;;;;;;5017728;28;19905;-55
2023/11/25 10:38:48;;;;;;;;;;;;;;;;;;5017420;28;19909;-58
2023/11/25 10:41:14;;;;;;;;;;;;;;;;;;5034833;28;19952;-56
2023/11/25 10:43:40;;;;;;;;;;;;;;;;;;5034921;28;20434;-51
2023/11/25 10:46:06;;;;;;;;;;;;;;;;;;5034884;28;19909;-55
2023/11/25 10:48:32;;;;;;;;;;;;;;;;;;5034701;28;20279;-53
2023/11/25 10:50:58;;;;;;;;;;;;;;;;;;5049898;28;20109;-51
2023/11/25 10:53:25;;;;;;;;;;;;;;;;;;5034573;28;19905;-56
2023/11/25 10:55:51;;;;;;;;;;;;;;;;;;5034599;28;19963;-56
2023/11/25 10:58:17;;;;;;;;;;;;;;;;;;5049822;28;19909;-55
2023/11/25 11:00:43;;;;;;;;;;;;;;;;;;5034319;28;19916;-53
2023/11/25 11:03:09;;;;;;;;;;;;;;;;;;5034252;28;20343;-56
2023/11/25 11:05:35;;;;;;;;;;;;;;;;;;5034524;28;19955;-56
2023/11/25 11:08:04;;;;;;;;;;;;;;;;;;5034416;28;19920;-54
2023/11/25 11:10:30;;;;;;;;;;;;;;;;;;5016461;28;20279;-53
2023/11/25 11:12:56;;;;;;;;;;;;;;;;;;5049515;28;20410;-52
2023/11/25 11:15:22;;;;;;;;;;;;;;;;;;5034121;28;19913;-56
2023/11/25 11:17:48;;;;;;;;;;;;;;;;;;5034686;28;19916;-54
2023/11/25 11:20:15;;;;;;;;;;;;;;;;;;5034116;28;19913;-56
2023/11/25 11:22:45;;;;;;;;;;;;;;;;;;5033541;28;19913;-55
2023/11/25 11:25:12;;;;;;;;;;;;;;;;;;5033706;28;20399;-54
2023/11/25 11:27:38;;;;;;;;;;;;;;;;;;5034018;28;19909;-56
2023/11/25 11:30:04;;;;;;;;;;;;;;;;;;5033841;28;20257;-56
2023/11/25 11:32:30;;;;;;;;;;;;;;;;;;5049048;28;20287;-54
2023/11/25 11:34:56;;;;;;;;;;;;;;;;;;5034022;28;19909;-50
2023/11/25 11:37:22;;;;;;;;;;;;;;;;;;5033926;28;20379;-56
2023/11/25 11:39:48;;;;;;;;;;;;;;;;;;5033850;28;20426;-52
2023/11/25 11:42:14;;;;;;;;;;;;;;;;;;5033502;28;20002;-53
2023/11/25 11:44:40;;;;;;;;;;;;;;;;;;5016219;28;20607;-54
2023/11/25 11:47:06;;;;;;;;;;;;;;;;;;5033742;28;19974;-56
2023/11/25 11:49:35;;;;;;;;;;;;;;;;;;5049084;28;19916;-56
2023/11/25 11:52:01;;;;;;;;;;;;;;;;;;5033275;28;19909;-55
2023/11/25 11:54:28;;;;;;;;;;;;;;;;;;5033822;28;19909;-57
2023/11/25 11:56:54;;;;;;;;;;;;;;;;;;5032094;28;19913;-53
2023/11/25 11:59:20;;;;;;;;;;;;;;;;;;5013478;28;19913;-52
2023/11/25 12:01:46;;;;;;;;;;;;;;;;;;5027291;28;20391;-53
2023/11/25 12:04:13;;;;;;;;;;;;;;;;;;5045052;28;19940;-56
2023/11/25 12:06:39;;;;;;;;;;;;;;;;;;5025868;28;19909;-50
2023/11/25 12:09:05;;;;;;;;;;;;;;;;;;5014072;28;19905;-53
2023/11/25 12:11:31;;;;;;;;;;;;;;;;;;5029323;28;19994;-54
2023/11/25 12:13:57;;;;;;;;;;;;;;;;;;5015490;28;19912;-56
2023/11/25 12:16:23;;;;;;;;;;;;;;;;;;5033229;28;20399;-50
2023/11/25 12:18:49;;;;;;;;;;;;;;;;;;5023982;28;20634;-51
2023/11/25 12:21:16;;;;;;;;;;;;;;;;;;5031395;28;20386;-54
2023/11/25 12:23:42;;;;;;;;;;;;;;;;;;5047191;22;20397;-47
2023/11/25 12:26:08;;;;;;;;;;;;;;;;;;5001552;28;19929;-48
2023/11/25 12:28:34;;;;;;;;;;;;;;;;;;5011102;28;20450;-47
2023/11/25 12:31:00;;;;;;;;;;;;;;;;;;5011063;28;19976;-47
2023/11/25 12:33:26;;;;;;;;;;;;;;;;;;5006599;28;19955;-47
2023/11/25 12:35:52;;;;;;;;;;;;;;;;;;5016531;28;19909;-47
2023/11/25 12:38:19;;;;;;;;;;;;;;;;;;5028248;28;19920;-46
2023/11/25 12:40:46;;;;;;;;;;;;;;;;;;5019546;28;20000;-47
2023/11/25 12:43:12;;;;;;;;;;;;;;;;;;5013113;28;20016;-48
2023/11/25 12:45:40;;;;;;;;;;;;;;;;;;4994266;28;19982;-48
2023/11/25 12:48:06;;;;;;;;;;;;;;;;;;5012504;28;19917;-47
2023/11/25 12:50:32;;;;;;;;;;;;;;;;;;5002728;28;19916;-48
2023/11/25 12:52:58;;;;;;;;;;;;;;;;;;5022977;28;19917;-49
2023/11/25 12:55:24;;;;;;;;;;;;;;;;;;5017219;28;19913;-47
2023/11/25 12:57:51;;;;;;;;;;;;;;;;;;5019279;28;19913;-48
2023/11/25 13:00:18;;;;;;;;;;;;;;;;;;5030683;28;19909;-47
2023/11/25 13:02:45;;;;;;;;;;;;;;;;;;5029382;28;19924;-48
2023/11/25 13:05:11;;;;;;;;;;;;;;;;;;5031032;28;20554;-47
2023/11/25 13:07:38;;;;;;;;;;;;;;;;;;5030574;28;19908;-47
2023/11/25 13:10:04;;;;;;;;;;;;;;;;;;5030949;28;19916;-47
2023/11/25 13:12:31;;;;;;;;;;;;;;;;;;4997170;28;20253;-48
2023/11/25 13:14:57;;;;;;;;;;;;;;;;;;4994079;28;19974;-47
2023/11/25 13:17:23;;;;;;;;;;;;;;;;;;5027701;28;19912;-48
2023/11/25 13:19:50;;;;;;;;;;;;;;;;;;5031654;28;19915;-48
2023/11/25 13:22:16;;;;;;;;;;;;;;;;;;5029902;28;19913;-48
2023/11/25 13:24:42;;;;;;;;;;;;;;;;;;5031141;28;19913;-47
2023/11/25 13:27:08;;;;;;;;;;;;;;;;;;5025390;28;19917;-48
2023/11/25 13:29:34;;;;;;;;;;;;;;;;;;5009116;28;19999;-47
2023/11/25 13:32:00;;;;;;;;;;;;;;;;;;5031906;28;19909;-47
2023/11/25 13:34:27;;;;;;;;;;;;;;;;;;5047448;28;19909;-49
2023/11/25 13:36:53;;;;;;;;;;;;;;;;;;5016014;28;19947;-48
2023/11/25 13:39:19;;;;;;;;;;;;;;;;;;5012310;28;19909;-48
2023/11/25 13:41:46;;;;;;;;;;;;;;;;;;5013475;28;20395;-48
2023/11/25 13:44:12;;;;;;;;;;;;;;;;;;5013443;28;19909;-51
2023/11/25 13:46:38;;;;;;;;;;;;;;;;;;5027075;28;19967;-47
2023/11/25 13:49:04;;;;;;;;;;;;;;;;;;5036039;28;19947;-49
2023/11/25 13:51:31;;;;;;;;;;;;;;;;;;5035955;28;19909;-48
2023/11/25 13:54:00;;;;;;;;;;;;;;;;;;5034388;28;19909;-48
2023/11/25 13:56:26;;;;;;;;;;;;;;;;;;5001550;28;19916;-49
2023/11/25 13:58:52;;;;;;;;;;;;;;;;;;5023487;28;19915;-48
2023/11/25 14:01:20;;;;;;;;;;;;;;;;;;5017602;28;20302;-49
2023/11/25 14:03:46;;;;;;;;;;;;;;;;;;5035885;28;19909;-48
2023/11/25 14:06:12;;;;;;;;;;;;;;;;;;5034155;28;20004;-48
2023/11/25 14:08:38;;;;;;;;;;;;;;;;;;5034094;28;19916;-48
2023/11/25 14:11:05;;;;;;;;;;;;;;;;;;5035557;28;20001;-51
2023/11/25 14:13:32;;;;;;;;;;;;;;;;;;5035631;28;19992;-49
2023/11/25 14:16:01;;;;;;;;;;;;;;;;;;5037079;28;20442;-49
2023/11/25 14:18:27;;;;;;;;;;;;;;;;;;5015143;28;19960;-48
2023/11/25 14:20:53;;;;;;;;;;;;;;;;;;5016753;28;20300;-49
2023/11/25 14:23:19;;;;;;;;;;;;;;;;;;5018814;28;20338;-49
2023/11/25 14:25:45;;;;;;;;;;;;;;;;;;4999342;28;20302;-48
2023/11/25 14:28:13;;;;;;;;;;;;;;;;;;5015618;28;20314;-48
2023/11/25 14:30:39;;;;;;;;;;;;;;;;;;5015788;28;19913;-50
2023/11/25 14:33:05;;;;;;;;;;;;;;;;;;5055101;28;19908;-48
2023/11/25 14:35:31;;;;;;;;;;;;;;;;;;5054364;28;20393;-49
2023/11/25 14:38:00;;;;;;;;;;;;;;;;;;5054468;28;19909;-48
2023/11/25 14:40:26;;;;;;;;;;;;;;;;;;5036927;28;19908;-50
2023/11/25 14:42:52;;;;;;;;;;;;;;;;;;5054637;28;19989;-48
2023/11/25 14:45:19;;;;;;;;;;;;;;;;;;5054978;28;19912;-49
2023/11/25 14:47:46;;;;;;;;;;;;;;;;;;5054903;28;19905;-48
2023/11/25 14:50:13;;;;;;;;;;;;;;;;;;5054869;28;20386;-47
2023/11/25 14:52:40;;;;;;;;;;;;;;;;;;5054634;28;19909;-48
2023/11/25 14:55:08;;;;;;;;;;;;;;;;;;5054939;28;19955;-48
2023/11/25 14:57:34;;;;;;;;;;;;;;;;;;5054759;28;20318;-50
2023/11/25 15:00:00;;;;;;;;;;;;;;;;;;5054123;28;19970;-48
2023/11/25 15:02:26;;;;;;;;;;;;;;;;;;5054381;28;20398;-51
2023/11/25 15:04:52;;;;;;;;;;;;;;;;;;5035296;28;20031;-48
2023/11/25 15:07:18;;;;;;;;;;;;;;;;;;5017050;28;19916;-48
2023/11/25 15:09:44;;;;;;;;;;;;;;;;;;5002170;28;19953;-47
2023/11/25 15:12:10;;;;;;;;;;;;;;;;;;5017964;28;19916;-48
2023/11/25 15:14:37;;;;;;;;;;;;;;;;;;5033880;28;19909;-47
2023/11/25 15:17:06;;;;;;;;;;;;;;;;;;5032860;28;19916;-49
2023/11/25 15:19:32;;;;;;;;;;;;;;;;;;5015858;28;19992;-49
2023/11/25 15:21:58;;;;;;;;;;;;;;;;;;5029947;28;20452;-49
2023/11/25 15:24:25;;;;;;;;;;;;;;;;;;4996808;28;20394;-49
2023/11/25 15:26:52;;;;;;;;;;;;;;;;;;4996295;28;19910;-49
2023/11/25 15:29:18;;;;;;;;;;;;;;;;;;4983512;28;19943;-47
2023/11/25 15:31:44;;;;;;;;;;;;;;;;;;4996684;28;20356;-48
2023/11/25 15:34:10;;;;;;;;;;;;;;;;;;4998232;28;20292;-50
2023/11/25 15:36:36;;;;;;;;;;;;;;;;;;4996066;28;19909;-47
2023/11/25 15:39:04;;;;;;;;;;;;;;;;;;4994757;28;19917;-48
2023/11/25 15:41:30;;;;;;;;;;;;;;;;;;4994484;28;20004;-49
2023/11/25 15:43:56;;;;;;;;;;;;;;;;;;5008367;28;19917;-48
2023/11/25 15:46:23;;;;;;;;;;;;;;;;;;5014331;28;19913;-48
2023/11/25 15:48:49;;;;;;;;;;;;;;;;;;4983358;28;20012;-47
2023/11/25 15:51:15;;;;;;;;;;;;;;;;;;4996468;28;19909;-48
2023/11/25 15:53:41;;;;;;;;;;;;;;;;;;5003538;28;19912;-46
2023/11/25 15:56:07;;;;;;;;;;;;;;;;;;5006142;28;19910;-48
2023/11/25 15:58:33;;;;;;;;;;;;;;;;;;5002595;28;19978;-47
2023/11/25 16:00:59;;;;;;;;;;;;;;;;;;5013740;28;19916;-49
2023/11/25 16:03:25;;;;;;;;;;;;;;;;;;5013802;28;20006;-48
2023/11/25 16:05:52;;;;;;;;;;;;;;;;;;5012757;28;19917;-49
2023/11/25 16:08:19;;;;;;;;;;;;;;;;;;5012866;28;20314;-48
2023/11/25 16:10:45;;;;;;;;;;;;;;;;;;5012494;28;19905;-48
2023/11/25 16:13:11;;;;;;;;;;;;;;;;;;4996192;28;19909;-48
2023/11/25 16:15:37;;;;;;;;;;;;;;;;;;4996237;28;20007;-48
2023/11/25 16:18:03;;;;;;;;;;;;;;;;;;5006373;28;20346;-49
2023/11/25 16:20:29;;;;;;;;;;;;;;;;;;4977069;28;19917;-49
2023/11/25 16:22:55;;;;;;;;;;;;;;;;;;5003737;28;20268;-49
2023/11/25 16:25:24;;;;;;;;;;;;;;;;;;5031688;28;20387;-49
2023/11/25 16:27:51;;;;;;;;;;;;;;;;;;5031656;28;19943;-50
2023/11/25 16:30:17;;;;;;;;;;;;;;;;;;5031498;28;19919;-51
2023/11/25 16:32:43;;;;;;;;;;;;;;;;;;5031248;28;20008;-49
2023/11/25 16:35:15;;;;;;;;;;;;;;;;;;5031398;28;19913;-49
2023/11/25 16:37:41;;;;;;;;;;;;;;;;;;5031361;28;19920;-48
2023/11/25 16:40:07;;;;;;;;;;;;;;;;;;5026170;28;19913;-48